Time;durP1;ratioP1;P1;durP2;ratioP2;P2;SDS_P1;SDS_P2;PMS_P1;PMS_P2;Temp;Humidity;BMP_temperature;BMP_pressure;BME280_temperature;BME280_humidity;BME280_pressure;Samples;Min_cycle;Max_cycle;Signal;HPM_P1;HPM_P2
2023/09/24 00:00:26;;;;;;;;;;;20.90;65.90;;;;;;5054207;28;1398;-66
2023/09/24 00:02:51;;;;;;;;;;;20.90;65.90;;;;;;5031658;28;1388;-64
2023/09/24 00:05:17;;;;;;;;;;;20.90;65.90;;;;;;5046688;28;1395;-67
2023/09/24 00:07:42;;;;;;;;;;;20.90;66.00;;;;;;5034094;28;1260;-66
2023/09/24 00:10:08;;;;;;;;;;;20.80;65.90;;;;;;5052839;28;1276;-67
2023/09/24 00:12:33;;;;;;;;;;;20.80;65.90;;;;;;5051350;28;1185;-66
2023/09/24 00:14:59;;;;;;;;;;;20.90;66.00;;;;;;5049789;28;1926;-66
2023/09/24 00:17:24;;;;;;;;;;;20.90;66.00;;;;;;5052679;28;1317;-66
2023/09/24 00:19:50;;;;;;;;;;;20.90;66.00;;;;;;5046493;28;1358;-67
2023/09/24 00:22:16;;;;;;;;;;;20.90;66.00;;;;;;5052035;28;1451;-66
2023/09/24 00:24:42;;;;;;;;;;;20.80;66.80;;;;;;5056331;28;1286;-67
2023/09/24 00:27:09;;;;;;;;;;;20.80;66.00;;;;;;5053568;28;1201;-64
2023/09/24 00:29:34;;;;;;;;;;;20.90;66.10;;;;;;5049430;28;1471;-65
2023/09/24 00:32:00;;;;;;;;;;;20.90;66.10;;;;;;5050134;28;1517;-64
2023/09/24 00:34:25;;;;;;;;;;;20.90;66.10;;;;;;5051026;28;1973;-64
2023/09/24 00:36:51;;;;;;;;;;;20.80;66.10;;;;;;5054290;28;1566;-66
2023/09/24 00:39:17;;;;;;;;;;;20.80;66.10;;;;;;5051222;28;1386;-67
2023/09/24 00:41:45;;;;;;;;;;;20.90;66.20;;;;;;5052872;28;1751;-66
2023/09/24 00:44:13;;;;;;;;;;;20.90;66.10;;;;;;5054705;28;1353;-66
2023/09/24 00:46:39;;;;;;;;;;;20.90;66.20;;;;;;5053800;28;1374;-66
2023/09/24 00:49:04;;;;;;;;;;;20.90;66.20;;;;;;5040077;28;1488;-65
2023/09/24 00:51:30;;;;;;;;;;;20.80;66.10;;;;;;5054987;28;1545;-65
2023/09/24 00:53:55;;;;;;;;;;;20.90;66.20;;;;;;5054205;28;1961;-64
2023/09/24 00:56:21;;;;;;;;;;;20.80;66.10;;;;;;5036985;28;1661;-65
2023/09/24 00:58:47;;;;;;;;;;;20.80;66.10;;;;;;5037192;28;1612;-66
2023/09/24 01:01:13;;;;;;;;;;;20.90;66.20;;;;;;5033921;28;1350;-66
2023/09/24 01:03:40;;;;;;;;;;;20.90;66.30;;;;;;5053436;28;1381;-66
2023/09/24 01:06:06;;;;;;;;;;;20.80;67.00;;;;;;5052822;28;1189;-66
2023/09/24 01:08:33;;;;;;;;;;;20.80;66.20;;;;;;5040785;28;1460;-65
2023/09/24 01:10:58;;;;;;;;;;;20.90;66.30;;;;;;5051022;28;1370;-64
2023/09/24 01:13:24;;;;;;;;;;;20.90;66.30;;;;;;5047320;28;1902;-65
2023/09/24 01:15:50;;;;;;;;;;;20.90;66.30;;;;;;5050870;28;1373;-64
2023/09/24 01:18:16;;;;;;;;;;;20.90;66.30;;;;;;5047967;28;1447;-64
2023/09/24 01:20:42;;;;;;;;;;;20.90;66.30;;;;;;5035204;28;1392;-64
2023/09/24 01:23:10;;;;;;;;;;;20.90;66.40;;;;;;5043851;28;1480;-64
2023/09/24 01:25:36;;;;;;;;;;;20.90;66.40;;;;;;5052524;28;1587;-65
2023/09/24 01:28:06;;;;;;;;;;;20.90;66.40;;;;;;5048341;28;1387;-64
2023/09/24 01:30:31;;;;;;;;;;;20.90;66.40;;;;;;5049254;28;1440;-64
2023/09/24 01:32:57;;;;;;;;;;;20.80;66.40;;;;;;5035545;28;1902;-64
2023/09/24 01:35:27;;;;;;;;;;;20.80;66.40;;;;;;5054339;28;1437;-64
2023/09/24 01:38:05;;;;;;;;;;;20.90;66.40;;;;;;5052943;28;1087;-64
2023/09/24 01:40:33;;;;;;;;;;;20.90;66.40;;;;;;5049598;28;1377;-64
2023/09/24 01:42:59;;;;;;;;;;;20.80;66.40;;;;;;5051790;28;1338;-64
2023/09/24 01:45:26;;;;;;;;;;;20.80;66.40;;;;;;5055202;28;1418;-65
2023/09/24 01:47:52;;;;;;;;;;;20.80;66.40;;;;;;5049442;28;1359;-64
2023/09/24 01:50:17;;;;;;;;;;;20.90;66.50;;;;;;5028315;28;1481;-64
2023/09/24 01:52:45;;;;;;;;;;;20.80;66.40;;;;;;5056158;28;1437;-63
2023/09/24 01:55:13;;;;;;;;;;;20.90;66.50;;;;;;5048404;28;2356;-63
2023/09/24 01:57:40;;;;;;;;;;;20.90;66.60;;;;;;5047122;28;1471;-64
2023/09/24 02:00:11;;;;;;;;;;;20.80;66.40;;;;;;5051085;28;1309;-64
2023/09/24 02:02:40;;;;;;;;;;;20.90;66.50;;;;;;5044326;28;1501;-65
2023/09/24 02:05:10;;;;;;;;;;;20.80;66.50;;;;;;5049007;28;1039;-65
2023/09/24 02:07:39;;;;;;;;;;;20.80;66.50;;;;;;5047123;28;1474;-64
2023/09/24 02:10:05;;;;;;;;;;;20.90;66.60;;;;;;5056814;28;1330;-65
2023/09/24 02:12:37;;;;;;;;;;;20.80;66.50;;;;;;5059916;28;1184;-64
2023/09/24 02:15:18;;;;;;;;;;;20.80;66.50;;;;;;5036805;28;1898;-65
2023/09/24 02:17:44;;;;;;;;;;;20.80;66.50;;;;;;5033703;28;1069;-65
2023/09/24 02:20:14;;;;;;;;;;;20.80;66.50;;;;;;5033204;28;1378;-65
2023/09/24 02:22:40;;;;;;;;;;;20.80;66.50;;;;;;5033973;28;1279;-64
2023/09/24 02:25:08;;;;;;;;;;;20.90;66.60;;;;;;5051719;28;1532;-64
2023/09/24 02:27:34;;;;;;;;;;;20.80;66.60;;;;;;5048251;28;1381;-64
2023/09/24 02:29:59;;;;;;;;;;;20.80;66.60;;;;;;5047838;28;1355;-64
2023/09/24 02:32:27;;;;;;;;;;;20.80;66.60;;;;;;5049779;28;1297;-63
2023/09/24 02:34:52;;;;;;;;;;;20.90;66.70;;;;;;5054870;28;1968;-64
2023/09/24 02:37:18;;;;;;;;;;;20.90;66.70;;;;;;5050857;28;1459;-64
2023/09/24 02:39:44;;;;;;;;;;;20.80;66.60;;;;;;5053963;28;1789;-65
2023/09/24 02:42:09;;;;;;;;;;;20.90;66.70;;;;;;5055345;28;1223;-64
2023/09/24 02:44:34;;;;;;;;;;;20.80;66.70;;;;;;5055341;28;1415;-64
2023/09/24 02:47:00;;;;;;;;;;;20.90;66.70;;;;;;5052351;28;1252;-64
2023/09/24 02:49:25;;;;;;;;;;;20.90;66.70;;;;;;5056499;28;1486;-64
2023/09/24 02:51:51;;;;;;;;;;;20.90;66.70;;;;;;5056864;28;1526;-65
2023/09/24 02:54:16;;;;;;;;;;;20.80;66.70;;;;;;5043527;28;1906;-64
2023/09/24 02:56:42;;;;;;;;;;;20.80;66.70;;;;;;5051899;28;1146;-64
2023/09/24 02:59:11;;;;;;;;;;;20.90;66.70;;;;;;5050960;28;1384;-65
2023/09/24 03:01:36;;;;;;;;;;;20.90;66.80;;;;;;5051282;28;1375;-65
2023/09/24 03:04:02;;;;;;;;;;;20.80;66.80;;;;;;5046639;28;1341;-64
2023/09/24 03:06:28;;;;;;;;;;;20.80;66.80;;;;;;5048850;28;1429;-65
2023/09/24 03:08:53;;;;;;;;;;;20.90;66.80;;;;;;5048878;28;1364;-64
2023/09/24 03:11:19;;;;;;;;;;;20.90;66.80;;;;;;5056305;28;1531;-65
2023/09/24 03:13:44;;;;;;;;;;;20.90;66.80;;;;;;5052156;28;1913;-64
2023/09/24 03:16:10;;;;;;;;;;;20.80;66.80;;;;;;5047817;28;1287;-64
2023/09/24 03:18:36;;;;;;;;;;;20.80;66.80;;;;;;5050284;28;1198;-65
2023/09/24 03:21:05;;;;;;;;;;;20.80;66.90;;;;;;5070485;22;2149;-68
2023/09/24 03:23:31;;;;;;;;;;;20.90;66.90;;;;;;5042134;28;1434;-68
2023/09/24 03:25:56;;;;;;;;;;;20.80;66.90;;;;;;5037857;28;1160;-68
2023/09/24 03:28:23;;;;;;;;;;;20.90;66.90;;;;;;5040302;28;1424;-68
2023/09/24 03:30:48;;;;;;;;;;;20.90;66.90;;;;;;5037799;28;1765;-68
2023/09/24 03:33:14;;;;;;;;;;;20.90;66.90;;;;;;5040547;28;1910;-68
2023/09/24 03:35:40;;;;;;;;;;;20.80;66.90;;;;;;5021315;28;1387;-68
2023/09/24 03:38:05;;;;;;;;;;;20.90;66.90;;;;;;5041676;28;1251;-68
2023/09/24 03:40:31;;;;;;;;;;;20.90;66.90;;;;;;5038253;28;1579;-68
2023/09/24 03:42:56;;;;;;;;;;;20.90;66.90;;;;;;5040278;28;1346;-68
2023/09/24 03:45:25;;;;;;;;;;;20.80;66.90;;;;;;5040744;28;1460;-68
2023/09/24 03:47:51;;;;;;;;;;;20.80;66.90;;;;;;5039494;28;1249;-68
2023/09/24 03:50:17;;;;;;;;;;;20.80;66.90;;;;;;5019879;28;1612;-68
2023/09/24 03:52:46;;;;;;;;;;;20.80;66.90;;;;;;5039936;28;1373;-68
2023/09/24 03:55:12;;;;;;;;;;;20.90;67.00;;;;;;5019658;28;1961;-68
2023/09/24 03:57:37;;;;;;;;;;;20.90;67.00;;;;;;5037184;28;1361;-66
2023/09/24 04:00:09;;;;;;;;;;;20.80;67.00;;;;;;5017724;28;1660;-66
2023/09/24 04:02:34;;;;;;;;;;;20.80;67.00;;;;;;5021224;28;1370;-66
2023/09/24 04:05:00;;;;;;;;;;;20.90;67.00;;;;;;5042589;28;1418;-66
2023/09/24 04:07:25;;;;;;;;;;;20.90;67.00;;;;;;5043737;28;1334;-65
2023/09/24 04:09:51;;;;;;;;;;;20.90;67.10;;;;;;5044586;28;1727;-66
2023/09/24 04:12:17;;;;;;;;;;;20.90;67.00;;;;;;5040217;28;1380;-66
2023/09/24 04:14:42;;;;;;;;;;;20.90;67.10;;;;;;5040942;28;1902;-66
2023/09/24 04:17:09;;;;;;;;;;;20.80;67.00;;;;;;5041942;28;1076;-66
2023/09/24 04:19:34;;;;;;;;;;;20.90;67.10;;;;;;5032820;28;1577;-67
2023/09/24 04:22:00;;;;;;;;;;;20.90;67.10;;;;;;5022524;28;1499;-66
2023/09/24 04:24:25;;;;;;;;;;;20.90;67.10;;;;;;5043861;28;1235;-67
2023/09/24 04:26:52;;;;;;;;;;;20.80;67.10;;;;;;5036251;28;1964;-67
2023/09/24 04:29:18;;;;;;;;;;;20.80;67.10;;;;;;5025420;28;1854;-67
2023/09/24 04:31:44;;;;;;;;;;;20.90;67.10;;;;;;5010345;28;1846;-67
2023/09/24 04:34:12;;;;;;;;;;;20.80;67.10;;;;;;5023454;28;1965;-68
2023/09/24 04:36:41;;;;;;;;;;;20.80;67.10;;;;;;5042591;28;1349;-68
2023/09/24 04:39:09;;;;;;;;;;;20.80;67.10;;;;;;5043058;28;1504;-66
2023/09/24 04:41:37;;;;;;;;;;;20.80;67.10;;;;;;5045951;28;1260;-67
2023/09/24 04:44:03;;;;;;;;;;;20.80;67.10;;;;;;5045414;28;1625;-67
2023/09/24 04:46:28;;;;;;;;;;;20.90;67.20;;;;;;5022700;28;1184;-67
2023/09/24 04:48:54;;;;;;;;;;;20.80;67.10;;;;;;5025378;28;1801;-67
2023/09/24 04:51:19;;;;;;;;;;;20.90;67.20;;;;;;5041082;28;1358;-67
2023/09/24 04:53:45;;;;;;;;;;;20.90;67.20;;;;;;5043432;28;1961;-66
2023/09/24 04:56:10;;;;;;;;;;;20.80;67.10;;;;;;5023236;28;1073;-67
2023/09/24 04:58:36;;;;;;;;;;;20.90;67.20;;;;;;5040868;28;1458;-68
2023/09/24 05:01:05;;;;;;;;;;;20.90;67.20;;;;;;5040880;28;1299;-67
2023/09/24 05:03:31;;;;;;;;;;;20.90;67.20;;;;;;5021784;28;1217;-66
2023/09/24 05:05:57;;;;;;;;;;;20.90;67.20;;;;;;5021218;28;1248;-67
2023/09/24 05:08:23;;;;;;;;;;;20.90;67.20;;;;;;5021439;28;1500;-67
2023/09/24 05:10:49;;;;;;;;;;;20.90;67.20;;;;;;5042712;28;1468;-68
2023/09/24 05:13:15;;;;;;;;;;;20.90;67.20;;;;;;5020321;28;2185;-67
2023/09/24 05:15:40;;;;;;;;;;;20.90;67.20;;;;;;5036816;28;1504;-68
2023/09/24 05:18:06;;;;;;;;;;;20.90;67.20;;;;;;5018308;28;2248;-69
2023/09/24 05:20:32;;;;;;;;;;;20.90;67.20;;;;;;5038848;28;1885;-67
2023/09/24 05:22:57;;;;;;;;;;;20.90;67.20;;;;;;5020794;28;1161;-69
2023/09/24 05:25:23;;;;;;;;;;;20.90;67.20;;;;;;5024039;28;1532;-67
2023/09/24 05:27:48;;;;;;;;;;;20.80;67.20;;;;;;5040293;28;1351;-67
2023/09/24 05:30:14;;;;;;;;;;;20.90;67.30;;;;;;5035590;28;1272;-68
2023/09/24 05:32:39;;;;;;;;;;;20.90;67.30;;;;;;5038471;28;1460;-68
2023/09/24 05:35:05;;;;;;;;;;;20.80;67.30;;;;;;5041138;28;1906;-67
2023/09/24 05:37:30;;;;;;;;;;;20.80;67.30;;;;;;5043225;28;1543;-68
2023/09/24 05:39:56;;;;;;;;;;;20.90;67.30;;;;;;5040078;28;1984;-69
2023/09/24 05:42:21;;;;;;;;;;;20.90;67.40;;;;;;5023662;28;1404;-67
2023/09/24 05:44:47;;;;;;;;;;;20.80;67.30;;;;;;5041610;28;1543;-67
2023/09/24 05:47:12;;;;;;;;;;;20.90;67.30;;;;;;5038772;28;1547;-69
2023/09/24 05:49:38;;;;;;;;;;;20.90;67.40;;;;;;5030015;28;1681;-68
2023/09/24 05:52:03;;;;;;;;;;;20.90;67.40;;;;;;5039049;28;1312;-68
2023/09/24 05:54:29;;;;;;;;;;;20.90;67.40;;;;;;5038776;28;1957;-67
2023/09/24 05:56:54;;;;;;;;;;;20.90;67.40;;;;;;5037898;28;1214;-68
2023/09/24 05:59:20;;;;;;;;;;;20.90;67.40;;;;;;5039824;28;2255;-67
2023/09/24 06:01:45;;;;;;;;;;;20.90;67.40;;;;;;5039159;28;2004;-67
2023/09/24 06:04:11;;;;;;;;;;;20.90;67.40;;;;;;5041664;28;1474;-68
2023/09/24 06:06:37;;;;;;;;;;;20.90;68.10;;;;;;5038503;28;1257;-68
2023/09/24 06:09:08;;;;;;;;;;;20.90;67.40;;;;;;5042219;28;1442;-67
2023/09/24 06:11:35;;;;;;;;;;;20.90;67.40;;;;;;5039601;28;1316;-68
2023/09/24 06:14:03;;;;;;;;;;;20.90;67.50;;;;;;5038138;28;1891;-68
2023/09/24 06:16:29;;;;;;;;;;;20.90;67.50;;;;;;5040380;28;1488;-69
2023/09/24 06:18:54;;;;;;;;;;;20.90;67.50;;;;;;5037815;28;1490;-70
2023/09/24 06:21:20;;;;;;;;;;;20.90;67.50;;;;;;5041184;28;1849;-68
2023/09/24 06:23:45;;;;;;;;;;;20.90;67.50;;;;;;5038829;28;1327;-67
2023/09/24 06:26:11;;;;;;;;;;;20.80;67.50;;;;;;5039670;28;1821;-68
2023/09/24 06:28:36;;;;;;;;;;;20.90;67.50;;;;;;5040177;28;1977;-69
2023/09/24 06:31:03;;;;;;;;;;;20.80;67.50;;;;;;5041268;28;1916;-68
2023/09/24 06:33:28;;;;;;;;;;;20.90;67.50;;;;;;5021645;28;1906;-68
2023/09/24 06:35:54;;;;;;;;;;;20.80;67.50;;;;;;5023913;28;1818;-67
2023/09/24 06:38:20;;;;;;;;;;;20.80;67.50;;;;;;5023186;28;2404;-70
2023/09/24 06:40:45;;;;;;;;;;;20.80;67.50;;;;;;5039918;28;1949;-70
2023/09/24 06:43:11;;;;;;;;;;;20.90;67.60;;;;;;5021417;28;1458;-69
2023/09/24 06:45:36;;;;;;;;;;;20.80;67.50;;;;;;5042069;28;1313;-68
2023/09/24 06:48:03;;;;;;;;;;;20.80;67.50;;;;;;5029811;28;1585;-67
2023/09/24 06:50:28;;;;;;;;;;;20.90;67.60;;;;;;5019521;28;1983;-68
2023/09/24 06:52:54;;;;;;;;;;;20.90;67.60;;;;;;5037262;28;1366;-71
2023/09/24 06:55:19;;;;;;;;;;;20.90;67.60;;;;;;5022361;28;2230;-69
2023/09/24 06:57:45;;;;;;;;;;;20.90;67.60;;;;;;5040598;28;1310;-68
2023/09/24 07:00:10;;;;;;;;;;;20.80;67.60;;;;;;5022222;28;1396;-69
2023/09/24 07:02:36;;;;;;;;;;;20.90;68.30;;;;;;5038564;28;1962;-70
2023/09/24 07:05:04;;;;;;;;;;;20.90;67.60;;;;;;5018900;28;1806;-70
2023/09/24 07:07:30;;;;;;;;;;;20.90;67.60;;;;;;5034864;28;1394;-70
2023/09/24 07:09:55;;;;;;;;;;;20.90;67.60;;;;;;5036382;28;2237;-70
2023/09/24 07:12:22;;;;;;;;;;;20.90;67.60;;;;;;5032009;28;1473;-70
2023/09/24 07:14:47;;;;;;;;;;;20.90;67.70;;;;;;5035550;28;1919;-69
2023/09/24 07:17:15;;;;;;;;;;;20.90;67.60;;;;;;5019880;28;1427;-69
2023/09/24 07:19:40;;;;;;;;;;;20.80;67.60;;;;;;5039218;28;1425;-70
2023/09/24 07:22:06;;;;;;;;;;;20.80;67.60;;;;;;5040791;28;1428;-69
2023/09/24 07:24:31;;;;;;;;;;;20.90;67.70;;;;;;5034012;28;1713;-69
2023/09/24 07:27:02;;;;;;;;;;;20.90;67.70;;;;;;5035072;28;1229;-69
2023/09/24 07:29:28;;;;;;;;;;;20.80;67.60;;;;;;5037641;28;1374;-71
2023/09/24 07:31:54;;;;;;;;;;;20.80;67.60;;;;;;5018720;28;1465;-70
2023/09/24 07:34:20;;;;;;;;;;;20.80;67.60;;;;;;5038968;28;1906;-70
2023/09/24 07:36:45;;;;;;;;;;;20.80;67.60;;;;;;5035565;28;1767;-70
2023/09/24 07:39:11;;;;;;;;;;;20.90;67.70;;;;;;5037969;28;1378;-70
2023/09/24 07:41:36;;;;;;;;;;;20.90;67.70;;;;;;5041426;28;1320;-69
2023/09/24 07:44:02;;;;;;;;;;;20.80;67.70;;;;;;5023311;28;1453;-69
2023/09/24 07:46:27;;;;;;;;;;;20.80;67.70;;;;;;5044411;28;1470;-69
2023/09/24 07:48:53;;;;;;;;;;;20.80;67.70;;;;;;5043486;28;1601;-70
2023/09/24 07:51:18;;;;;;;;;;;20.80;67.70;;;;;;5040700;28;1421;-70
2023/09/24 07:53:47;;;;;;;;;;;20.80;67.80;;;;;;5043985;28;1902;-70
2023/09/24 07:56:13;;;;;;;;;;;20.80;67.70;;;;;;5045800;28;1376;-69
2023/09/24 07:58:39;;;;;;;;;;;20.80;67.70;;;;;;5040922;28;1435;-69
2023/09/24 08:01:07;;;;;;;;;;;20.80;67.80;;;;;;5042549;28;1423;-69
2023/09/24 08:03:33;;;;;;;;;;;20.80;67.80;;;;;;5025517;28;1454;-69
2023/09/24 08:05:58;;;;;;;;;;;20.80;67.80;;;;;;5025529;28;1472;-69
2023/09/24 08:08:25;;;;;;;;;;;20.80;67.80;;;;;;5038044;28;1598;-69
2023/09/24 08:10:51;;;;;;;;;;;20.80;67.80;;;;;;5039259;28;1581;-69
2023/09/24 08:13:18;;;;;;;;;;;20.80;67.80;;;;;;5042241;28;1930;-69
2023/09/24 08:15:43;;;;;;;;;;;20.80;67.80;;;;;;5041096;28;1365;-69
2023/09/24 08:18:09;;;;;;;;;;;20.80;67.80;;;;;;5041155;28;1483;-70
2023/09/24 08:20:35;;;;;;;;;;;20.80;67.80;;;;;;5040284;28;1503;-69
2023/09/24 08:23:01;;;;;;;;;;;20.80;67.80;;;;;;5041781;28;1410;-69
2023/09/24 08:25:26;;;;;;;;;;;20.80;67.80;;;;;;5021897;28;1427;-69
2023/09/24 08:27:52;;;;;;;;;;;20.80;67.80;;;;;;5042538;28;1284;-70
2023/09/24 08:30:19;;;;;;;;;;;20.80;67.80;;;;;;5043328;28;1401;-70
2023/09/24 08:32:44;;;;;;;;;;;20.80;67.90;;;;;;5038987;28;1358;-70
2023/09/24 08:35:09;;;;;;;;;;;20.80;67.90;;;;;;5042758;28;1910;-69
2023/09/24 08:37:35;;;;;;;;;;;20.80;67.90;;;;;;5036821;28;1914;-69
2023/09/24 08:40:01;;;;;;;;;;;20.80;67.90;;;;;;5042759;28;1294;-69
2023/09/24 08:42:26;;;;;;;;;;;20.80;68.00;;;;;;5043406;28;1266;-69
2023/09/24 08:44:55;;;;;;;;;;;20.80;68.00;;;;;;5043981;28;1416;-70
2023/09/24 08:47:22;;;;;;;;;;;20.80;68.00;;;;;;5023802;28;1169;-69
2023/09/24 08:49:48;;;;;;;;;;;20.80;68.00;;;;;;5027613;28;1268;-69
2023/09/24 08:52:15;;;;;;;;;;;20.80;68.00;;;;;;5025639;28;1376;-70
2023/09/24 08:54:40;;;;;;;;;;;20.80;68.00;;;;;;5022741;28;1951;-69
2023/09/24 08:57:05;;;;;;;;;;;20.80;68.00;;;;;;5042515;28;1476;-69
2023/09/24 08:59:31;;;;;;;;;;;20.80;68.00;;;;;;5040047;28;1356;-69
2023/09/24 09:01:56;;;;;;;;;;;20.80;68.00;;;;;;5042389;28;1459;-69
2023/09/24 09:04:22;;;;;;;;;;;20.80;68.00;;;;;;5042537;28;1340;-69
2023/09/24 09:06:47;;;;;;;;;;;20.80;68.00;;;;;;5022722;28;1510;-69
2023/09/24 09:09:23;;;;;;;;;;;20.80;68.00;;;;;;5042689;28;1260;-69
2023/09/24 09:11:48;;;;;;;;;;;20.80;68.00;;;;;;5024182;28;1621;-69
2023/09/24 09:14:14;;;;;;;;;;;20.80;68.10;;;;;;5040656;28;1918;-70
2023/09/24 09:16:53;;;;;;;;;;;20.80;68.20;;;;;;5044198;28;1434;-70
2023/09/24 09:19:18;;;;;;;;;;;20.80;68.10;;;;;;5023090;28;1797;-70
2023/09/24 09:21:43;;;;;;;;;;;20.80;68.10;;;;;;5042219;28;1572;-70
2023/09/24 09:24:23;;;;;;;;;;;20.80;68.10;;;;;;5045114;28;1445;-70
2023/09/24 09:26:53;;;;;;;;;;;20.80;68.10;;;;;;5049166;22;2283;-64
2023/09/24 09:29:22;;;;;;;;;;;20.80;68.10;;;;;;5050352;28;1315;-64
2023/09/24 09:31:48;;;;;;;;;;;20.80;68.10;;;;;;5049147;28;1983;-64
2023/09/24 09:34:14;;;;;;;;;;;20.80;68.20;;;;;;5050800;28;1963;-64
2023/09/24 09:36:40;;;;;;;;;;;20.80;68.10;;;;;;5057046;28;1389;-65
2023/09/24 09:39:06;;;;;;;;;;;20.80;68.20;;;;;;5051540;28;1260;-64
2023/09/24 09:41:32;;;;;;;;;;;20.80;68.20;;;;;;5069312;28;1306;-64
2023/09/24 09:43:58;;;;;;;;;;;20.80;68.20;;;;;;5069625;28;1464;-64
2023/09/24 09:46:23;;;;;;;;;;;20.80;68.30;;;;;;5068568;28;1486;-64
2023/09/24 09:48:56;;;;;;;;;;;20.80;68.20;;;;;;5069221;28;1380;-65
2023/09/24 09:51:21;;;;;;;;;;;20.80;68.20;;;;;;5053109;28;1346;-64
2023/09/24 09:53:47;;;;;;;;;;;20.80;68.20;;;;;;5069147;28;1898;-64
2023/09/24 09:56:12;;;;;;;;;;;20.80;68.20;;;;;;5070884;28;1323;-64
2023/09/24 09:58:38;;;;;;;;;;;20.80;68.20;;;;;;5068820;28;1344;-64
2023/09/24 10:01:06;;;;;;;;;;;20.80;68.30;;;;;;5070611;28;1046;-64
2023/09/24 10:03:39;;;;;;;;;;;20.80;68.30;;;;;;5070076;28;1490;-64
2023/09/24 10:06:06;;;;;;;;;;;20.80;68.30;;;;;;5070210;28;1354;-64
2023/09/24 10:08:42;;;;;;;;;;;20.80;68.30;;;;;;5069972;28;1354;-64
2023/09/24 10:11:08;;;;;;;;;;;20.80;68.30;;;;;;5069902;28;1422;-65
2023/09/24 10:13:40;;;;;;;;;;;20.80;68.40;;;;;;5069547;28;1957;-64
2023/09/24 10:16:24;;;;;;;;;;;20.80;68.40;;;;;;5086005;28;1532;-65
2023/09/24 10:19:03;;;;;;;;;;;20.80;68.40;;;;;;5068845;28;1306;-64
2023/09/24 10:21:31;;;;;;;;;;;20.80;68.40;;;;;;5070270;28;1002;-64
2023/09/24 10:24:20;;;;;;;;;;;20.80;68.40;;;;;;5068613;28;1203;-64
2023/09/24 10:27:02;;;;;;;;;;;20.80;68.40;;;;;;5068473;28;1684;-65
2023/09/24 10:29:44;;;;;;;;;;;20.80;68.40;;;;;;5068461;28;919;-64
2023/09/24 10:32:12;;;;;;;;;;;20.80;68.40;;;;;;5069660;28;907;-64
2023/09/24 10:34:59;;;;;;;;;;;20.80;68.40;;;;;;5070388;28;2048;-65
2023/09/24 10:37:29;;;;;;;;;;;20.80;68.50;;;;;;5069796;28;1267;-64
2023/09/24 10:39:57;;;;;;;;;;;20.80;68.40;;;;;;5069782;28;1267;-64
2023/09/24 10:42:23;;;;;;;;;;;20.80;68.50;;;;;;5070096;28;1438;-64
2023/09/24 10:44:48;;;;;;;;;;;20.80;68.80;;;;;;5069606;28;1455;-64
2023/09/24 10:47:23;;;;;;;;;;;20.80;68.50;;;;;;5050803;28;1467;-64
2023/09/24 10:49:49;;;;;;;;;;;20.80;68.50;;;;;;5067708;28;1530;-64
2023/09/24 10:52:14;;;;;;;;;;;20.80;68.50;;;;;;5068825;28;1187;-64
2023/09/24 10:54:41;;;;;;;;;;;20.80;68.50;;;;;;5069944;28;1902;-64
2023/09/24 10:57:07;;;;;;;;;;;20.80;68.50;;;;;;5081587;28;1926;-64
2023/09/24 10:59:33;;;;;;;;;;;20.80;68.50;;;;;;5069910;28;1306;-64
2023/09/24 11:02:13;;;;;;;;;;;20.80;68.50;;;;;;5069343;28;1487;-64
2023/09/24 11:04:39;;;;;;;;;;;20.80;68.50;;;;;;5068960;28;1542;-64
2023/09/24 11:07:08;;;;;;;;;;;20.80;68.50;;;;;;5067493;28;1965;-64
2023/09/24 11:09:34;;;;;;;;;;;20.80;68.50;;;;;;5068074;28;1378;-64
2023/09/24 11:12:00;;;;;;;;;;;20.80;68.60;;;;;;5083593;28;1375;-64
2023/09/24 11:14:26;;;;;;;;;;;20.80;68.50;;;;;;5072315;28;1906;-64
2023/09/24 11:16:54;;;;;;;;;;;20.80;68.50;;;;;;5071872;28;1543;-64
2023/09/24 11:19:39;;;;;;;;;;;20.80;68.60;;;;;;5072480;28;1376;-64
2023/09/24 11:22:20;;;;;;;;;;;20.80;68.60;;;;;;5072416;28;1306;-65
2023/09/24 11:24:46;;;;;;;;;;;20.80;68.60;;;;;;5073015;28;1538;-64
2023/09/24 11:27:12;;;;;;;;;;;20.80;68.60;;;;;;5088373;28;1259;-64
2023/09/24 11:29:38;;;;;;;;;;;20.80;68.60;;;;;;5073538;28;1448;-64
2023/09/24 11:32:03;;;;;;;;;;;20.80;68.60;;;;;;5073491;28;1344;-64
2023/09/24 11:34:29;;;;;;;;;;;20.80;68.60;;;;;;5073535;28;1953;-64
2023/09/24 11:36:55;;;;;;;;;;;20.80;68.60;;;;;;5072994;28;1244;-65
2023/09/24 11:39:21;;;;;;;;;;;20.80;68.60;;;;;;5072566;28;1466;-65
2023/09/24 11:41:46;;;;;;;;;;;20.80;68.60;;;;;;5072657;28;1474;-64
2023/09/24 11:44:11;;;;;;;;;;;20.80;68.60;;;;;;5073078;28;1284;-64
2023/09/24 11:46:38;;;;;;;;;;;20.80;68.60;;;;;;5071522;28;2043;-64
2023/09/24 11:49:04;;;;;;;;;;;20.80;69.40;;;;;;5072834;28;1367;-64
2023/09/24 11:51:30;;;;;;;;;;;20.80;68.60;;;;;;5070499;28;1141;-64
2023/09/24 11:53:56;;;;;;;;;;;20.80;68.60;;;;;;5073067;28;1902;-64
2023/09/24 11:56:22;;;;;;;;;;;20.80;68.60;;;;;;5071410;28;2084;-64
2023/09/24 11:58:48;;;;;;;;;;;20.80;68.60;;;;;;5071353;28;1269;-64
2023/09/24 12:01:13;;;;;;;;;;;20.80;68.60;;;;;;5071684;28;1331;-64
2023/09/24 12:03:39;;;;;;;;;;;20.80;68.60;;;;;;5071759;28;1316;-64
2023/09/24 12:06:05;;;;;;;;;;;20.80;68.60;;;;;;5072928;28;1370;-64
2023/09/24 12:08:30;;;;;;;;;;;20.80;68.70;;;;;;5072834;28;1380;-64
2023/09/24 12:10:56;;;;;;;;;;;20.80;68.70;;;;;;5072594;28;1784;-64
2023/09/24 12:13:22;;;;;;;;;;;20.80;68.70;;;;;;5072062;28;1878;-64
2023/09/24 12:15:47;;;;;;;;;;;20.80;68.70;;;;;;5053863;28;1349;-64
2023/09/24 12:18:13;;;;;;;;;;;20.80;68.70;;;;;;5069901;28;2092;-64
2023/09/24 12:20:40;;;;;;;;;;;20.80;68.70;;;;;;5072526;28;1246;-64
2023/09/24 12:23:08;;;;;;;;;;;20.80;68.70;;;;;;5070252;28;2071;-64
2023/09/24 12:25:35;;;;;;;;;;;20.80;68.70;;;;;;5071211;28;1395;-64
2023/09/24 12:28:04;;;;;;;;;;;20.80;68.70;;;;;;5071334;28;1496;-64
2023/09/24 12:30:30;;;;;;;;;;;20.80;68.70;;;;;;5054220;28;1699;-63
2023/09/24 12:32:55;;;;;;;;;;;20.80;68.80;;;;;;5069062;28;1881;-64
2023/09/24 12:35:21;;;;;;;;;;;20.80;68.80;;;;;;5072098;28;1906;-64
2023/09/24 12:37:46;;;;;;;;;;;20.80;68.70;;;;;;5071409;28;1298;-65
2023/09/24 12:40:12;;;;;;;;;;;20.80;68.70;;;;;;5071971;28;1374;-64
2023/09/24 12:42:38;;;;;;;;;;;20.80;68.70;;;;;;5071882;28;1561;-65
2023/09/24 12:45:04;;;;;;;;;;;20.80;68.80;;;;;;5071495;28;1429;-65
2023/09/24 12:47:32;;;;;;;;;;;20.80;68.70;;;;;;5071987;28;1501;-64
2023/09/24 12:49:58;;;;;;;;;;;20.80;68.80;;;;;;5071010;28;1486;-64
2023/09/24 12:52:24;;;;;;;;;;;20.80;68.80;;;;;;5070433;28;1614;-64
2023/09/24 12:54:50;;;;;;;;;;;20.80;68.80;;;;;;5070372;28;1993;-64
2023/09/24 12:57:15;;;;;;;;;;;20.80;68.70;;;;;;5071473;28;1289;-64
2023/09/24 12:59:40;;;;;;;;;;;20.80;68.80;;;;;;5071251;28;1350;-64
2023/09/24 13:02:06;;;;;;;;;;;20.80;68.80;;;;;;5071592;28;1287;-64
2023/09/24 13:04:34;;;;;;;;;;;20.80;68.80;;;;;;5072192;28;1367;-64
2023/09/24 13:06:59;;;;;;;;;;;20.80;68.80;;;;;;5052807;28;1472;-64
2023/09/24 13:09:25;;;;;;;;;;;20.80;68.80;;;;;;5071504;28;1289;-65
2023/09/24 13:11:50;;;;;;;;;;;20.80;68.80;;;;;;5071422;28;1199;-65
2023/09/24 13:14:15;;;;;;;;;;;20.80;68.80;;;;;;5070546;28;1898;-65
2023/09/24 13:16:46;;;;;;;;;;;20.80;68.80;;;;;;5070832;28;1351;-64
2023/09/24 13:19:12;;;;;;;;;;;20.80;68.80;;;;;;5070689;28;1478;-64
2023/09/24 13:21:38;;;;;;;;;;;20.80;68.80;;;;;;5067977;28;2158;-63
2023/09/24 13:24:04;;;;;;;;;;;20.80;68.80;;;;;;5068719;28;1952;-64
2023/09/24 13:26:29;;;;;;;;;;;20.80;68.60;;;;;;5070652;28;1346;-64
2023/09/24 13:28:55;;;;;;;;;;;20.80;68.60;;;;;;5070254;28;1313;-64
2023/09/24 13:31:21;;;;;;;;;;;20.80;68.70;;;;;;5069354;28;1306;-63
2023/09/24 13:33:47;;;;;;;;;;;20.80;68.50;;;;;;5069234;28;2307;-62
2023/09/24 13:36:12;;;;;;;;;;;20.80;68.10;;;;;;5064883;28;1931;-63
2023/09/24 13:38:38;;;;;;;;;;;20.80;67.30;;;;;;5069874;28;1463;-62
2023/09/24 13:41:04;;;;;;;;;;;20.80;66.20;;;;;;5070996;28;1062;-62
2023/09/24 13:43:30;;;;;;;;;;;20.80;65.70;;;;;;5068433;28;1928;-63
2023/09/24 13:45:55;;;;;;;;;;;20.80;64.10;;;;;;5070271;28;1399;-63
2023/09/24 13:48:20;;;;;;;;;;;20.90;63.30;;;;;;5068054;28;4508;-63
2023/09/24 13:50:49;;;;;;;;;;;20.90;63.60;;;;;;5068741;28;934;-63
2023/09/24 13:53:15;;;;;;;;;;;20.90;62.80;;;;;;5067146;28;1709;-63
2023/09/24 13:55:43;;;;;;;;;;;20.90;62.00;;;;;;5085162;28;1967;-63
2023/09/24 13:58:09;;;;;;;;;;;20.90;61.20;;;;;;5069382;28;1296;-63
2023/09/24 14:00:34;;;;;;;;;;;20.90;60.50;;;;;;5071811;28;1017;-63
2023/09/24 14:03:00;;;;;;;;;;;20.90;59.20;;;;;;5070728;28;1157;-62
2023/09/24 14:05:26;;;;;;;;;;;20.90;58.60;;;;;;5069555;28;1260;-62
2023/09/24 14:07:59;;;;;;;;;;;20.90;58.30;;;;;;5070396;28;1437;-63
2023/09/24 14:13:09;;;;;;;;;;;20.90;58.30;;;;;;5069349;28;1211;-62
2023/09/24 14:15:36;;;;;;;;;;;20.80;58.60;;;;;;5070730;28;1930;-63
2023/09/24 14:18:02;;;;;;;;;;;20.90;59.60;;;;;;5068945;28;1361;-62
2023/09/24 14:20:31;;;;;;;;;;;20.90;60.10;;;;;;5070604;28;1382;-62
2023/09/24 14:22:56;;;;;;;;;;;20.80;60.60;;;;;;5069661;28;1338;-63
2023/09/24 14:25:22;;;;;;;;;;;20.80;60.90;;;;;;5070324;28;1119;-62
2023/09/24 14:27:47;;;;;;;;;;;20.90;61.20;;;;;;5068776;28;1426;-63
2023/09/24 14:30:13;;;;;;;;;;;20.80;61.30;;;;;;5086115;28;1439;-63